Time;durP1;ratioP1;P1;durP2;ratioP2;P2;SDS_P1;SDS_P2;PMS_P1;PMS_P2;Temp;Humidity;BMP_temperature;BMP_pressure;BME280_temperature;BME280_humidity;BME280_pressure;Samples;Min_cycle;Max_cycle;Signal;HPM_P1;HPM_P2
2021/07/01 00:00:39;;;;;;;2.55;2.35;;;16.30;99.90;;;;;;4974378;28;20496;-77
2021/07/01 00:03:05;;;;;;;3.20;2.70;;;16.30;99.90;;;;;;4973834;28;20982;-77
2021/07/01 00:05:31;;;;;;;3.05;2.50;;;16.30;99.90;;;;;;4971955;28;20400;-77
2021/07/01 00:07:57;;;;;;;2.50;2.30;;;16.30;99.90;;;;;;4989727;28;20409;-78
2021/07/01 00:10:25;;;;;;;3.20;2.90;;;16.30;99.90;;;;;;4990402;28;20408;-77
2021/07/01 00:12:52;;;;;;;2.95;2.75;;;16.30;99.90;;;;;;4975422;28;20410;-78
2021/07/01 00:15:20;;;;;;;3.10;2.85;;;16.30;99.90;;;;;;4974768;28;20401;-78
2021/07/01 00:17:46;;;;;;;2.88;2.67;;;16.40;99.90;;;;;;4972293;28;20409;-80
2021/07/01 00:20:12;;;;;;;3.13;2.83;;;16.40;99.90;;;;;;4976229;28;20412;-80
2021/07/01 00:22:38;;;;;;;3.30;3.00;;;16.40;99.90;;;;;;5007291;28;20777;-80
2021/07/01 00:25:05;;;;;;;2.55;2.35;;;16.40;99.90;;;;;;4991689;28;20393;-80
2021/07/01 00:27:31;;;;;;;2.80;2.42;;;16.40;99.90;;;;;;5008153;28;20413;-80
2021/07/01 00:29:57;;;;;;;2.70;2.47;;;16.30;99.90;;;;;;4991499;28;20409;-79
2021/07/01 00:32:22;;;;;;;2.72;2.53;;;16.40;99.90;;;;;;5006392;28;20412;-78
2021/07/01 00:34:48;;;;;;;2.50;2.30;;;16.40;99.90;;;;;;5006668;28;20403;-78
2021/07/01 00:37:14;;;;;;;3.20;2.90;;;16.40;99.90;;;;;;4990762;28;21243;-77
2021/07/01 00:39:40;;;;;;;2.95;2.75;;;16.40;99.90;;;;;;5006120;28;20462;-79
2021/07/01 00:42:06;;;;;;;3.25;3.05;;;16.40;99.90;;;;;;4988168;28;20414;-81
2021/07/01 00:44:32;;;;;;;3.10;2.80;;;16.40;99.90;;;;;;4993350;28;20405;-81
2021/07/01 00:46:59;;;;;;;4.40;2.42;;;16.40;99.90;;;;;;4975319;28;20739;-80
2021/07/01 00:49:24;;;;;;;2.63;2.43;;;16.50;99.90;;;;;;4989677;28;20404;-80
2021/07/01 00:51:53;;;;;;;2.85;2.65;;;16.40;99.90;;;;;;4990560;28;20885;-79
2021/07/01 00:54:19;;;;;;;2.72;2.53;;;16.40;99.90;;;;;;4991793;28;20467;-80
2021/07/01 00:56:45;;;;;;;2.80;2.60;;;16.40;99.90;;;;;;5003111;28;20418;-79
2021/07/01 00:59:11;;;;;;;2.72;2.53;;;16.40;99.90;;;;;;4993030;28;20448;-79
2021/07/01 01:01:38;;;;;;;2.83;2.63;;;16.40;99.90;;;;;;5004784;28;20401;-81
2021/07/01 01:04:07;;;;;;;2.63;2.43;;;16.40;99.90;;;;;;4987224;28;20480;-80
2021/07/01 01:06:38;;;;;;;2.00;1.90;;;16.40;99.90;;;;;;5006594;28;20400;-80
2021/07/01 01:09:08;;;;;;;2.10;2.00;;;16.50;99.90;;;;;;5004755;28;20407;-80
2021/07/01 01:11:33;;;;;;;6.80;2.50;;;16.30;99.90;;;;;;4987613;28;20391;-79
2021/07/01 01:14:09;;;;;;;2.33;2.13;;;16.40;99.90;;;;;;4999319;28;20461;-79
2021/07/01 01:16:48;;;;;;;2.28;2.15;;;16.40;99.90;;;;;;4987668;28;20396;-80
2021/07/01 01:19:14;;;;;;;2.50;2.28;;;16.30;99.90;;;;;;4992936;28;20982;-79
2021/07/01 01:21:45;;;;;;;2.38;2.17;;;16.40;99.90;;;;;;5009628;28;20395;-80
2021/07/01 01:24:11;;;;;;;2.47;2.22;;;16.40;99.90;;;;;;4991192;28;20482;-80
2021/07/01 01:26:39;;;;;;;2.50;2.30;;;16.30;99.90;;;;;;5007158;28;20435;-81
2021/07/01 01:29:05;;;;;;;2.38;2.28;;;16.30;99.90;;;;;;4997044;28;20754;-79
2021/07/01 01:31:32;;;;;;;2.47;2.28;;;16.30;99.90;;;;;;5002569;28;20396;-79
2021/07/01 01:33:58;;;;;;;3.13;2.70;;;16.40;99.90;;;;;;5007163;28;21008;-80
2021/07/01 01:36:24;;;;;;;2.70;2.50;;;16.40;99.90;;;;;;5006904;28;20397;-81
2021/07/01 01:38:52;;;;;;;3.05;2.40;;;16.40;99.90;;;;;;5008340;28;20401;-81
2021/07/01 01:41:39;;;;;;;2.50;2.30;;;16.40;99.90;;;;;;5022759;28;20420;-79
2021/07/01 01:44:06;;;;;;;2.50;2.30;;;16.40;99.90;;;;;;5008919;28;21087;-79
2021/07/01 01:47:04;;;;;;;2.80;2.60;;;16.40;99.90;;;;;;4987802;28;20412;-78
2021/07/01 01:49:32;;;;;;;2.47;2.28;;;16.40;99.90;;;;;;5028867;28;20789;-80
2021/07/01 01:51:58;;;;;;;2.20;2.00;;;16.40;99.90;;;;;;5004424;28;20403;-80
2021/07/01 01:54:25;;;;;;;2.30;2.20;;;16.30;99.90;;;;;;4988749;28;20473;-80
2021/07/01 01:56:51;;;;;;;2.45;2.30;;;16.40;99.90;;;;;;4993787;28;20403;-80
2021/07/01 01:59:31;;;;;;;2.30;2.20;;;16.40;99.90;;;;;;5007747;28;20403;-79
2021/07/01 02:02:28;;;;;;;1.93;1.80;;;16.40;99.90;;;;;;4992555;28;20914;-79
2021/07/01 02:05:13;;;;;;;2.28;2.10;;;16.30;99.90;;;;;;4990859;28;20416;-79
2021/07/01 02:07:43;;;;;;;1.90;1.80;;;16.30;99.90;;;;;;4993271;28;20491;-82
2021/07/01 02:10:17;;;;;;;2.20;2.10;;;16.20;99.90;;;;;;4970662;28;20401;-81
2021/07/01 02:12:46;;;;;;;2.00;1.90;;;16.20;99.90;;;;;;4962733;28;20424;-80
2021/07/01 02:15:14;;;;;;;1.80;1.70;;;16.20;99.90;;;;;;4961959;28;20392;-80
2021/07/01 02:17:50;;;;;;;1.98;1.83;;;16.20;99.90;;;;;;4994324;28;20390;-82
2021/07/01 02:20:21;;;;;;;1.80;1.70;;;16.20;99.90;;;;;;4978921;28;20969;-78
2021/07/01 02:22:47;;;;;;;2.03;1.93;;;16.20;99.90;;;;;;4992530;28;20462;-79
2021/07/01 02:25:15;;;;;;;1.70;1.60;;;16.20;99.90;;;;;;4986127;28;20431;-79
2021/07/01 02:27:52;;;;;;;1.85;1.75;;;16.20;99.90;;;;;;4979169;28;20399;-79
2021/07/01 02:30:19;;;;;;;3.20;1.88;;;16.20;99.90;;;;;;5011293;28;20903;-81
2021/07/01 02:32:46;;;;;;;1.73;1.63;;;16.10;99.90;;;;;;4994217;28;20396;-79
2021/07/01 02:35:16;;;;;;;1.70;1.60;;;16.10;99.90;;;;;;5011038;28;20414;-79
2021/07/01 02:38:00;;;;;;;2.05;1.85;;;16.10;99.90;;;;;;5007996;28;20479;-81
2021/07/01 02:40:31;;;;;;;1.73;1.63;;;16.00;99.90;;;;;;5013482;28;20404;-79
2021/07/01 02:43:03;;;;;;;2.10;2.00;;;16.10;99.90;;;;;;5004551;28;20410;-79
2021/07/01 02:45:29;;;;;;;1.83;1.73;;;16.00;99.90;;;;;;4994916;28;20512;-80
2021/07/01 02:48:09;;;;;;;1.92;1.83;;;16.00;99.90;;;;;;4987710;28;20394;-81
2021/07/01 02:50:45;;;;;;;2.15;1.90;;;16.00;99.90;;;;;;4979661;28;20396;-81
2021/07/01 02:53:11;;;;;;;2.28;2.08;;;16.00;99.90;;;;;;5008385;28;20861;-79
2021/07/01 02:55:38;;;;;;;2.20;2.00;;;16.00;99.90;;;;;;4988689;28;20392;-78
2021/07/01 02:58:04;;;;;;;1.75;1.65;;;15.90;99.90;;;;;;5009668;28;20476;-81
2021/07/01 03:00:32;;;;;;;2.28;2.00;;;16.00;99.90;;;;;;4993771;28;20429;-78
2021/07/01 03:02:58;;;;;;;2.00;1.90;;;15.90;99.90;;;;;;5007622;28;20925;-81
2021/07/01 03:05:38;;;;;;;2.30;2.10;;;15.90;99.90;;;;;;4993781;28;20443;-80
2021/07/01 03:08:04;;;;;;;3.33;2.07;;;15.90;99.90;;;;;;4984312;28;20801;-81
2021/07/01 03:10:29;;;;;;;2.40;2.20;;;16.00;99.90;;;;;;4991392;28;20418;-81
2021/07/01 03:12:59;;;;;;;2.60;2.22;;;15.90;99.90;;;;;;5009838;28;20508;-78
2021/07/01 03:15:26;;;;;;;2.17;2.08;;;15.90;99.90;;;;;;5003187;28;20394;-79
2021/07/01 03:17:52;;;;;;;2.20;2.05;;;15.90;99.90;;;;;;4993233;28;20482;-78
2021/07/01 03:20:23;;;;;;;2.58;2.38;;;15.90;99.90;;;;;;4984156;28;20934;-79
2021/07/01 03:23:07;;;;;;;2.60;2.40;;;15.90;99.90;;;;;;4987083;28;21181;-79
2021/07/01 03:25:33;;;;;;;2.93;2.73;;;15.90;99.90;;;;;;4979499;28;20394;-79
2021/07/01 03:28:02;;;;;;;3.03;2.63;;;15.90;99.90;;;;;;4981542;28;20403;-81
2021/07/01 03:30:28;;;;;;;3.70;2.83;;;16.00;99.90;;;;;;4964052;28;20417;-78
2021/07/01 03:32:53;;;;;;;3.38;2.95;;;16.00;99.90;;;;;;4973057;28;20402;-78
2021/07/01 03:35:19;;;;;;;4.10;2.80;;;16.00;99.90;;;;;;4986305;28;20402;-79
2021/07/01 03:38:05;;;;;;;3.40;3.05;;;16.00;99.90;;;;;;4997788;28;20391;-79
2021/07/01 03:40:44;;;;;;;3.83;2.80;;;16.00;99.90;;;;;;4995072;28;20403;-79
2021/07/01 03:43:10;;;;;;;3.72;3.13;;;16.10;99.90;;;;;;4994952;28;20397;-81
2021/07/01 03:45:39;;;;;;;3.38;3.08;;;16.10;99.90;;;;;;4993705;28;21007;-78
2021/07/01 03:48:05;;;;;;;2.90;2.70;;;16.10;99.90;;;;;;5042075;28;20484;-78
2021/07/01 03:50:35;;;;;;;3.72;3.22;;;16.10;99.90;;;;;;5009356;28;20437;-78
2021/07/01 03:53:15;;;;;;;4.07;3.47;;;16.20;99.90;;;;;;4975555;28;21159;-78
2021/07/01 03:55:41;;;;;;;3.38;3.10;;;16.20;99.90;;;;;;4989928;28;20427;-78
2021/07/01 03:58:07;;;;;;;3.50;3.20;;;16.20;99.90;;;;;;4983044;28;20905;-78
2021/07/01 04:00:32;;;;;;;4.30;3.42;;;16.30;99.90;;;;;;4992395;28;20456;-79
2021/07/01 04:03:01;;;;;;;4.25;3.85;;;16.40;99.90;;;;;;4992950;28;20914;-79
2021/07/01 04:05:39;;;;;;;3.88;3.47;;;16.40;99.90;;;;;;4993882;28;20930;-78
2021/07/01 04:08:05;;;;;;;4.07;3.60;;;16.50;99.90;;;;;;4992864;28;20391;-79
2021/07/01 04:10:53;;;;;;;3.88;3.58;;;16.60;99.90;;;;;;4994877;28;20431;-79
2021/07/01 04:13:23;;;;;;;3.97;3.67;;;16.60;99.90;;;;;;4977941;28;20404;-79
2021/07/01 04:16:09;;;;;;;5.78;3.92;;;16.60;99.90;;;;;;4992897;28;20985;-79
2021/07/01 04:18:54;;;;;;;3.65;3.25;;;16.70;99.90;;;;;;4984084;28;20438;-78
2021/07/01 04:21:50;;;;;;;3.60;3.30;;;16.70;99.90;;;;;;4962533;28;20513;-78
2021/07/01 04:24:34;;;;;;;3.85;3.53;;;16.70;99.90;;;;;;4984302;28;20546;-82
2021/07/01 04:27:08;;;;;;;3.95;3.60;;;17.00;99.90;;;;;;5016855;28;20989;-79
2021/07/01 04:29:40;;;;;;;3.55;3.22;;;16.90;99.90;;;;;;4992112;28;20447;-81
2021/07/01 04:32:07;;;;;;;4.22;3.42;;;17.00;99.90;;;;;;4982660;28;20423;-80
2021/07/01 04:34:33;;;;;;;3.75;3.40;;;17.00;99.90;;;;;;4980147;28;20992;-80
2021/07/01 04:37:03;;;;;;;4.60;3.80;;;17.00;99.90;;;;;;4962216;28;20405;-79
2021/07/01 04:39:34;;;;;;;4.28;3.38;;;17.10;99.90;;;;;;4986800;28;20399;-78
2021/07/01 04:42:13;;;;;;;4.05;3.28;;;17.20;99.90;;;;;;4961239;28;20402;-80
2021/07/01 04:44:39;;;;;;;7.10;3.67;;;17.20;99.90;;;;;;4987613;28;20453;-79
2021/07/01 04:47:06;;;;;;;3.63;3.33;;;17.20;99.90;;;;;;4978071;28;20490;-80
2021/07/01 04:49:32;;;;;;;4.25;3.85;;;17.20;99.90;;;;;;4985886;28;20930;-79
2021/07/01 04:52:36;;;;;;;4.28;3.88;;;17.30;99.90;;;;;;4983811;28;20409;-79
2021/07/01 04:55:21;;;;;;;4.30;3.90;;;17.40;99.90;;;;;;4969447;28;20492;-77
2021/07/01 04:58:04;;;;;;;4.80;3.80;;;17.40;99.90;;;;;;4975219;28;20433;-77
2021/07/01 05:01:18;;;;;;;4.70;4.20;;;17.50;99.90;;;;;;4938365;28;20414;-77
2021/07/01 05:04:17;;;;;;;6.20;4.22;;;17.40;99.90;;;;;;5009964;28;20467;-77
2021/07/01 05:06:43;;;;;;;4.05;3.65;;;17.40;99.90;;;;;;4988668;28;20486;-77
2021/07/01 05:09:09;;;;;;;3.70;3.40;;;17.40;99.90;;;;;;4982596;28;20966;-78
2021/07/01 05:11:37;;;;;;;4.30;3.92;;;17.50;99.90;;;;;;4986957;28;20392;-79
2021/07/01 05:14:04;;;;;;;4.53;4.13;;;17.50;99.90;;;;;;4980917;28;20419;-77
2021/07/01 05:16:32;;;;;;;4.67;4.20;;;17.50;99.90;;;;;;4979834;28;20949;-76
2021/07/01 05:18:59;;;;;;;4.10;3.75;;;17.60;99.90;;;;;;4967569;28;20431;-76
2021/07/01 05:21:36;;;;;;;5.55;4.10;;;17.60;99.90;;;;;;5005587;28;20402;-76
2021/07/01 05:24:21;;;;;;;4.43;4.00;;;17.70;99.90;;;;;;4977145;28;20407;-75
2021/07/01 05:27:09;;;;;;;4.18;3.78;;;17.80;99.90;;;;;;4996566;28;20408;-76
2021/07/01 05:29:54;;;;;;;4.55;4.13;;;17.80;99.90;;;;;;5019976;28;20389;-77
2021/07/01 05:32:38;;;;;;;4.30;3.90;;;17.90;99.90;;;;;;5015310;28;20470;-76
2021/07/01 05:35:12;;;;;;;4.78;4.15;;;17.90;99.90;;;;;;4996417;28;20391;-76
2021/07/01 05:37:49;;;;;;;4.32;3.92;;;18.00;99.90;;;;;;4995600;28;20383;-76
2021/07/01 05:40:17;;;;;;;4.32;3.85;;;18.10;99.90;;;;;;4990274;28;20494;-76
2021/07/01 05:42:44;;;;;;;5.07;4.23;;;18.10;99.90;;;;;;5016151;28;21128;-76
2021/07/01 05:45:10;;;;;;;3.92;3.53;;;18.10;99.90;;;;;;4996547;28;20403;-77
2021/07/01 05:47:36;;;;;;;6.72;3.35;;;18.10;99.90;;;;;;4994878;28;20417;-76
2021/07/01 05:50:04;;;;;;;3.60;3.30;;;18.20;99.90;;;;;;4975776;28;20405;-76
2021/07/01 05:52:35;;;;;;;4.03;3.38;;;18.40;99.90;;;;;;4995132;28;20395;-75
2021/07/01 05:55:03;;;;;;;4.45;3.30;;;18.50;99.90;;;;;;4995352;28;20406;-77
2021/07/01 05:57:29;;;;;;;4.68;4.28;;;18.60;99.90;;;;;;5007322;28;20397;-76
2021/07/01 05:59:55;;;;;;;3.73;3.43;;;18.60;99.90;;;;;;4978300;28;20406;-76
2021/07/01 06:02:21;;;;;;;4.28;3.67;;;18.60;99.90;;;;;;4987625;28;20786;-75
2021/07/01 06:04:46;;;;;;;3.93;3.63;;;18.70;99.90;;;;;;5005688;28;20770;-77
2021/07/01 06:07:31;;;;;;;4.68;4.28;;;18.70;99.90;;;;;;4989092;28;20428;-76
2021/07/01 06:09:58;;;;;;;4.00;3.70;;;18.80;99.90;;;;;;4983158;28;20423;-76
2021/07/01 06:12:23;;;;;;;3.88;3.58;;;18.80;99.90;;;;;;4982671;28;20957;-77
2021/07/01 06:14:59;;;;;;;5.80;3.30;;;18.80;99.90;;;;;;4991218;28;20397;-76
2021/07/01 06:17:33;;;;;;;3.47;3.17;;;18.80;99.90;;;;;;4993010;28;20416;-77
2021/07/01 06:20:05;;;;;;;3.28;3.08;;;18.80;99.90;;;;;;5004520;28;20421;-76
2021/07/01 06:22:31;;;;;;;4.45;3.42;;;18.90;99.90;;;;;;4987729;28;20399;-77
2021/07/01 06:24:57;;;;;;;3.90;3.55;;;18.90;99.90;;;;;;5003811;28;20482;-77
2021/07/01 06:27:35;;;;;;;4.07;3.67;;;18.90;99.90;;;;;;4987566;28;20469;-76
2021/07/01 06:30:04;;;;;;;3.70;3.40;;;18.90;99.90;;;;;;4991915;28;20417;-77
2021/07/01 06:32:32;;;;;;;4.13;3.72;;;19.00;99.90;;;;;;4986747;28;20441;-77
2021/07/01 06:34:59;;;;;;;5.40;3.80;;;19.00;99.90;;;;;;5015645;28;20395;-76
2021/07/01 06:37:24;;;;;;;3.38;3.17;;;19.00;99.90;;;;;;4979082;28;20461;-76
2021/07/01 06:40:10;;;;;;;3.72;3.42;;;19.10;99.90;;;;;;5009007;28;20421;-76
2021/07/01 06:42:58;;;;;;;3.50;3.20;;;19.10;99.90;;;;;;5011760;28;20395;-77
2021/07/01 06:45:42;;;;;;;3.50;3.20;;;19.20;99.90;;;;;;4971755;28;20801;-77
2021/07/01 06:48:43;;;;;;;4.05;3.65;;;19.10;99.90;;;;;;4982917;28;20397;-77
2021/07/01 06:51:33;;;;;;;4.28;3.88;;;19.10;99.90;;;;;;5021037;28;20399;-75
2021/07/01 06:54:18;;;;;;;4.75;4.00;;;19.10;99.90;;;;;;5009395;28;20413;-76
2021/07/01 06:57:20;;;;;;;3.70;3.00;;;19.10;99.90;;;;;;4937972;28;20435;-75
2021/07/01 06:59:45;;;;;;;3.93;3.53;;;19.10;99.90;;;;;;4953473;28;20482;-76
2021/07/01 07:02:11;;;;;;;3.40;3.10;;;19.10;99.90;;;;;;4961618;28;20403;-78
2021/07/01 07:04:37;;;;;;;3.40;3.10;;;19.10;99.90;;;;;;4975750;28;20404;-76
2021/07/01 07:07:06;;;;;;;3.90;3.60;;;19.20;99.90;;;;;;4984630;28;20427;-76
2021/07/01 07:09:32;;;;;;;3.42;3.13;;;19.30;99.90;;;;;;5000387;28;20411;-77
2021/07/01 07:11:58;;;;;;;4.37;3.10;;;19.40;99.90;;;;;;4994431;28;20462;-77
2021/07/01 07:14:23;;;;;;;3.67;3.38;;;19.40;99.90;;;;;;4996109;28;20477;-78
2021/07/01 07:16:49;;;;;;;3.93;3.23;;;19.50;99.90;;;;;;4978729;28;20403;-77
2021/07/01 07:19:15;;;;;;;5.40;4.22;;;19.50;99.90;;;;;;5018828;28;20475;-77
2021/07/01 07:21:45;;;;;;;4.50;4.10;;;19.50;99.90;;;;;;5000098;28;20415;-76
2021/07/01 07:24:12;;;;;;;3.88;3.58;;;19.50;99.90;;;;;;5006028;28;20403;-77
2021/07/01 07:26:38;;;;;;;3.90;3.15;;;19.60;99.90;;;;;;4987103;28;20401;-77
2021/07/01 07:29:04;;;;;;;3.40;3.10;;;19.50;99.90;;;;;;5008164;28;20457;-76
2021/07/01 07:31:31;;;;;;;3.23;3.00;;;19.70;99.90;;;;;;4977548;28;20403;-77
2021/07/01 07:34:01;;;;;;;3.70;3.40;;;19.90;99.90;;;;;;4983524;28;20463;-78
2021/07/01 07:36:27;;;;;;;3.92;3.50;;;19.80;99.90;;;;;;5007239;28;20402;-77
2021/07/01 07:38:54;;;;;;;3.80;3.42;;;19.80;99.90;;;;;;4974124;28;20395;-77
2021/07/01 07:41:20;;;;;;;5.50;3.35;;;19.80;99.90;;;;;;5016740;28;20435;-77
2021/07/01 07:43:46;;;;;;;3.80;3.50;;;19.90;99.90;;;;;;4999622;28;20421;-76
2021/07/01 07:46:12;;;;;;;4.72;4.20;;;20.00;99.90;;;;;;4983381;28;20410;-78
2021/07/01 07:48:39;;;;;;;5.57;5.03;;;19.80;99.90;;;;;;5000861;28;20448;-77
2021/07/01 07:51:04;;;;;;;3.40;3.10;;;19.80;99.90;;;;;;4969279;28;20418;-78
2021/07/01 07:53:31;;;;;;;3.53;3.28;;;19.80;99.90;;;;;;5021237;28;20429;-78
2021/07/01 07:56:07;;;;;;;3.03;2.80;;;19.80;99.90;;;;;;5013953;28;20387;-79
2021/07/01 07:58:35;;;;;;;3.75;2.60;;;19.90;99.90;;;;;;5008689;28;20397;-79
2021/07/01 08:01:01;;;;;;;2.78;2.58;;;20.00;99.90;;;;;;5000630;28;20493;-79
2021/07/01 08:03:33;;;;;;;3.05;2.72;;;20.00;99.90;;;;;;4997191;28;20499;-78
2021/07/01 08:06:01;;;;;;;2.40;2.28;;;20.10;99.90;;;;;;5007619;28;20398;-79
2021/07/01 08:08:29;;;;;;;2.43;2.23;;;20.20;99.90;;;;;;4989973;28;20403;-78
2021/07/01 08:10:56;;;;;;;2.13;1.98;;;20.30;99.90;;;;;;4953784;28;20453;-78
2021/07/01 08:13:22;;;;;;;2.13;1.87;;;20.40;99.90;;;;;;4971942;28;20934;-78
2021/07/01 08:15:48;;;;;;;2.03;1.90;;;20.50;99.90;;;;;;5004856;28;20461;-78
2021/07/01 08:18:39;;;;;;;2.20;2.10;;;20.60;99.90;;;;;;5003465;28;20393;-78
2021/07/01 08:21:05;;;;;;;2.40;2.20;;;20.50;99.90;;;;;;4991557;28;20399;-78
2021/07/01 08:23:32;;;;;;;2.50;2.30;;;20.50;99.90;;;;;;4971627;28;20472;-79
2021/07/01 08:25:58;;;;;;;1.83;1.73;;;20.60;99.90;;;;;;4974842;28;20393;-79
2021/07/01 08:28:23;;;;;;;3.78;3.45;;;20.50;99.90;;;;;;4986380;28;20422;-78
2021/07/01 08:30:49;;;;;;;4.37;3.63;;;20.40;99.90;;;;;;4991956;28;21101;-78
2021/07/01 08:33:21;;;;;;;2.53;2.33;;;20.40;99.90;;;;;;5013007;28;20378;-79
2021/07/01 08:35:54;;;;;;;7.75;6.95;;;20.50;99.90;;;;;;5031047;28;20381;-80
2021/07/01 08:38:20;;;;;;;4.15;3.75;;;20.60;99.90;;;;;;4999023;28;20902;-79
2021/07/01 08:40:48;;;;;;;2.13;2.00;;;20.60;99.90;;;;;;4976714;28;20411;-80
2021/07/01 08:43:18;;;;;;;2.28;2.08;;;20.50;99.90;;;;;;5000463;28;20393;-80
2021/07/01 08:46:12;;;;;;;1.75;1.65;;;20.70;99.90;;;;;;4972413;28;20457;-79
2021/07/01 08:49:02;;;;;;;2.45;1.50;;;20.80;99.90;;;;;;4947133;28;20908;-76
2021/07/01 08:51:32;;;;;;;1.77;1.67;;;20.90;99.90;;;;;;4989476;28;20470;-79
2021/07/01 08:54:24;;;;;;;1.50;1.30;;;21.00;99.90;;;;;;4968253;28;20460;-78
2021/07/01 08:56:52;;;;;;;0.82;0.82;;;21.20;99.90;;;;;;4987651;28;20924;-79
2021/07/01 08:59:20;;;;;;;1.00;1.00;;;21.20;99.90;;;;;;4989007;28;20404;-79
2021/07/01 09:01:53;;;;;;;1.10;1.10;;;21.30;99.90;;;;;;4984259;28;20512;-79
2021/07/01 09:04:19;;;;;;;1.00;0.90;;;21.10;99.90;;;;;;4994006;28;20405;-79
2021/07/01 09:06:45;;;;;;;0.90;0.90;;;21.10;99.90;;;;;;4996863;28;20388;-79
2021/07/01 09:09:11;;;;;;;1.20;1.10;;;21.10;99.90;;;;;;4992910;28;20403;-80
2021/07/01 09:11:40;;;;;;;0.80;0.80;;;21.10;99.90;;;;;;5020327;28;20385;-80
2021/07/01 09:14:08;;;;;;;0.80;0.80;;;21.00;99.90;;;;;;5033372;28;20439;-78
2021/07/01 09:16:34;;;;;;;0.98;0.98;;;20.90;99.90;;;;;;5006381;28;20463;-80
2021/07/01 09:19:01;;;;;;;1.30;1.20;;;21.30;99.90;;;;;;5005618;28;20407;-78
2021/07/01 09:21:30;;;;;;;1.10;1.10;;;21.40;99.90;;;;;;4996872;28;21462;-77
2021/07/01 09:23:59;;;;;;;1.13;1.02;;;21.50;99.90;;;;;;5023624;28;20402;-78
2021/07/01 09:26:25;;;;;;;1.40;1.15;;;21.40;99.90;;;;;;5023908;28;20403;-79
2021/07/01 09:28:53;;;;;;;1.50;0.85;;;21.80;99.90;;;;;;5020885;28;20407;-78
2021/07/01 09:31:22;;;;;;;0.82;0.82;;;21.80;99.90;;;;;;5003380;28;20412;-77
2021/07/01 09:33:49;;;;;;;1.00;0.90;;;22.00;99.90;;;;;;4999500;28;20403;-79
2021/07/01 09:36:15;;;;;;;1.20;1.10;;;22.20;99.90;;;;;;5023274;28;20433;-79
2021/07/01 09:38:42;;;;;;;0.90;0.90;;;22.30;99.90;;;;;;5005891;28;20393;-79
2021/07/01 09:41:07;;;;;;;0.85;0.85;;;22.60;99.90;;;;;;4987344;28;20391;-79
2021/07/01 09:43:33;;;;;;;0.90;0.90;;;23.30;99.90;;;;;;5013459;28;20394;-80
2021/07/01 09:46:00;;;;;;;1.40;1.07;;;23.40;99.90;;;;;;5003245;28;20491;-79
2021/07/01 09:48:26;;;;;;;1.30;1.20;;;23.50;99.90;;;;;;4986815;28;20446;-79
2021/07/01 09:50:52;;;;;;;1.30;1.15;;;23.40;99.90;;;;;;5021784;28;20470;-80
2021/07/01 09:53:30;;;;;;;1.27;1.20;;;23.30;99.90;;;;;;4991160;28;20420;-79
2021/07/01 09:55:59;;;;;;;2.80;2.60;;;23.40;99.90;;;;;;4990640;28;20415;-79
2021/07/01 09:58:28;;;;;;;3.67;3.22;;;23.50;99.90;;;;;;4998333;28;20379;-79
2021/07/01 10:00:54;;;;;;;1.10;1.10;;;23.50;99.90;;;;;;5022849;28;20425;-78
2021/07/01 10:03:20;;;;;;;1.40;1.30;;;23.60;99.90;;;;;;5042946;28;20767;-79
2021/07/01 10:05:46;;;;;;;1.00;1.00;;;23.50;99.90;;;;;;5024534;28;20423;-80
2021/07/01 10:08:11;;;;;;;1.10;1.10;;;23.40;99.90;;;;;;5024718;28;20376;-78
2021/07/01 10:10:47;;;;;;;4.63;4.23;;;23.20;99.90;;;;;;4988773;28;20389;-79
2021/07/01 10:13:13;;;;;;;2.30;2.20;;;22.90;99.90;;;;;;4992827;28;20461;-79
2021/07/01 10:15:40;;;;;;;1.40;1.20;;;22.90;99.90;;;;;;5012605;28;20392;-81
2021/07/01 10:18:13;;;;;;;1.30;1.20;;;22.80;99.90;;;;;;5014985;28;20432;-79
2021/07/01 10:20:41;;;;;;;1.00;1.00;;;22.80;99.90;;;;;;5005582;28;20439;-79
2021/07/01 10:23:27;;;;;;;1.27;1.17;;;22.90;99.90;;;;;;5024860;28;20425;-79
2021/07/01 10:26:15;;;;;;;1.17;1.07;;;23.00;99.90;;;;;;5006932;28;20399;-79
2021/07/01 10:28:41;;;;;;;1.00;1.00;;;23.20;99.90;;;;;;4994785;28;20399;-79
2021/07/01 10:31:13;;;;;;;1.10;1.10;;;23.10;99.90;;;;;;4981812;28;20391;-79
2021/07/01 10:33:42;;;;;;;0.93;0.93;;;23.20;99.90;;;;;;4988345;28;20400;-80
2021/07/01 10:36:18;;;;;;;1.17;1.08;;;23.20;99.90;;;;;;5020393;28;20402;-80
2021/07/01 10:38:48;;;;;;;1.30;1.17;;;23.30;99.90;;;;;;5002276;28;20389;-79
2021/07/01 10:41:25;;;;;;;1.17;1.10;;;23.50;99.90;;;;;;5010616;28;20401;-80
2021/07/01 10:43:51;;;;;;;1.05;1.05;;;23.70;99.90;;;;;;4998797;28;20384;-80
2021/07/01 10:46:16;;;;;;;0.98;0.98;;;23.90;99.90;;;;;;4985058;28;20389;-80
2021/07/01 10:48:43;;;;;;;1.10;1.10;;;24.10;99.90;;;;;;4990954;28;20390;-80
2021/07/01 10:51:13;;;;;;;4.30;1.30;;;24.20;99.90;;;;;;4983684;28;20397;-80
2021/07/01 10:53:42;;;;;;;2.40;2.20;;;24.10;99.90;;;;;;4947650;28;20417;-80
2021/07/01 10:56:16;;;;;;;1.23;1.13;;;24.10;99.90;;;;;;4970700;28;20389;-81
2021/07/01 10:58:42;;;;;;;1.10;1.10;;;23.90;99.90;;;;;;4998013;28;20460;-80
2021/07/01 11:01:07;;;;;;;1.17;1.17;;;23.90;99.90;;;;;;5008346;28;20409;-81
2021/07/01 11:03:33;;;;;;;1.20;1.20;;;23.90;99.90;;;;;;5008928;28;20403;-80
2021/07/01 11:06:01;;;;;;;1.33;1.30;;;23.80;99.90;;;;;;5010873;28;20427;-80
2021/07/01 11:08:36;;;;;;;1.20;1.20;;;23.70;99.90;;;;;;4997362;28;20404;-80
2021/07/01 11:11:03;;;;;;;1.30;1.20;;;23.50;99.90;;;;;;5010044;28;20459;-81
2021/07/01 11:13:30;;;;;;;1.35;1.30;;;23.60;99.90;;;;;;5007385;28;20826;-79
2021/07/01 11:16:08;;;;;;;1.43;1.33;;;23.80;99.90;;;;;;5007064;28;20393;-80
2021/07/01 11:18:44;;;;;;;1.40;1.30;;;23.80;99.90;;;;;;4988613;28;20924;-79
2021/07/01 11:21:15;;;;;;;1.10;1.10;;;23.80;99.90;;;;;;4972386;28;20767;-81
2021/07/01 11:23:42;;;;;;;1.20;1.20;;;23.70;99.90;;;;;;4971918;28;20422;-80
2021/07/01 11:26:33;;;;;;;4.45;1.33;;;23.60;99.90;;;;;;5003844;28;20953;-80
2021/07/01 11:29:02;;;;;;;1.27;1.20;;;23.40;99.90;;;;;;4989873;28;20521;-79
2021/07/01 11:31:36;;;;;;;1.40;1.30;;;23.00;99.90;;;;;;5018922;28;20436;-78
2021/07/01 11:34:02;;;;;;;3.10;1.55;;;23.10;99.90;;;;;;5018229;28;20389;-80
2021/07/01 11:36:29;;;;;;;1.67;1.20;;;23.20;99.90;;;;;;5017798;28;20405;-80
2021/07/01 11:39:14;;;;;;;1.48;1.35;;;23.00;99.90;;;;;;4986011;28;20465;-80
2021/07/01 11:41:41;;;;;;;1.33;1.30;;;23.00;99.90;;;;;;5015330;28;20407;-80
2021/07/01 11:44:10;;;;;;;1.08;1.08;;;23.00;99.90;;;;;;5012969;28;20447;-81
2021/07/01 11:46:35;;;;;;;1.05;1.05;;;23.10;99.90;;;;;;5012544;28;20412;-78
2021/07/01 11:49:04;;;;;;;1.00;1.00;;;23.10;99.90;;;;;;5023731;28;20985;-77
2021/07/01 11:51:31;;;;;;;1.38;1.27;;;22.90;99.90;;;;;;5005071;28;20424;-79
2021/07/01 11:53:57;;;;;;;1.90;1.10;;;23.10;99.90;;;;;;5005756;28;20375;-80
2021/07/01 11:56:23;;;;;;;1.10;1.10;;;22.90;99.90;;;;;;5014064;28;20732;-78
2021/07/01 11:58:48;;;;;;;1.33;1.23;;;22.80;99.90;;;;;;5023218;28;20396;-79
2021/07/01 12:01:17;;;;;;;1.10;1.10;;;22.80;99.90;;;;;;5017607;28;20408;-80
2021/07/01 12:03:46;;;;;;;1.02;1.02;;;22.70;99.90;;;;;;4993836;28;20525;-80
2021/07/01 12:06:34;;;;;;;0.80;0.80;;;22.70;99.90;;;;;;5011782;28;20395;-80
2021/07/01 12:09:01;;;;;;;0.95;0.95;;;23.00;99.90;;;;;;5015109;28;20403;-79
2021/07/01 12:11:27;;;;;;;0.70;0.70;;;22.90;99.90;;;;;;5009273;28;20876;-80
2021/07/01 12:13:53;;;;;;;0.80;0.80;;;22.90;99.90;;;;;;4983078;28;20405;-81
2021/07/01 12:16:19;;;;;;;0.70;0.70;;;22.50;99.90;;;;;;4999383;28;20440;-78
2021/07/01 12:18:45;;;;;;;0.50;0.50;;;22.50;99.90;;;;;;5022131;28;20407;-79
2021/07/01 12:21:16;;;;;;;0.50;0.50;;;22.50;99.90;;;;;;5004115;28;20435;-78
2021/07/01 12:23:59;;;;;;;0.60;0.60;;;22.60;99.90;;;;;;5019902;28;20399;-78
2021/07/01 12:26:38;;;;;;;0.57;0.57;;;22.90;99.90;;;;;;5001289;28;20395;-81
2021/07/01 12:29:06;;;;;;;0.32;0.32;;;23.00;99.90;;;;;;5008493;28;20407;-81
2021/07/01 12:31:34;;;;;;;0.45;0.45;;;23.10;99.90;;;;;;4993436;28;20538;-78
2021/07/01 12:34:04;;;;;;;2.03;0.57;;;23.30;99.90;;;;;;5017074;28;20642;-79
2021/07/01 12:36:40;;;;;;;0.70;0.70;;;23.20;99.90;;;;;;5009692;28;20400;-80
2021/07/01 12:39:13;;;;;;;0.52;0.52;;;23.00;99.90;;;;;;5022017;28;20444;-79
2021/07/01 12:41:53;;;;;;;1.00;1.00;;;22.90;99.90;;;;;;4995740;28;20414;-80
2021/07/01 12:44:22;;;;;;;0.90;0.90;;;23.10;99.90;;;;;;4990933;28;20391;-81
2021/07/01 12:46:48;;;;;;;0.50;0.50;;;23.50;99.90;;;;;;4997724;28;20402;-80
2021/07/01 12:52:10;;;;;;;1.10;0.80;;;24.20;99.90;;;;;;5002991;28;20393;-80
2021/07/01 12:54:36;;;;;;;0.60;0.60;;;24.20;99.90;;;;;;4985748;28;20377;-79
2021/07/01 12:57:03;;;;;;;0.70;0.70;;;24.30;99.90;;;;;;5033792;28;20395;-78
2021/07/01 12:59:36;;;;;;;0.60;0.60;;;24.50;99.90;;;;;;4988552;28;20415;-79
2021/07/01 13:02:04;;;;;;;0.70;0.70;;;24.40;99.90;;;;;;4994004;28;20442;-80
2021/07/01 13:04:30;;;;;;;0.63;0.63;;;24.40;99.90;;;;;;4988106;28;20477;-80
2021/07/01 13:06:57;;;;;;;0.63;0.63;;;24.20;99.90;;;;;;5010550;28;20465;-79
2021/07/01 13:09:29;;;;;;;0.88;0.88;;;24.00;99.90;;;;;;5008453;28;20822;-79